Time;durP1;ratioP1;P1;durP2;ratioP2;P2;SDS_P1;SDS_P2;PMS_P1;PMS_P2;Temp;Humidity;BMP_temperature;BMP_pressure;BME280_temperature;BME280_humidity;BME280_pressure;Samples;Min_cycle;Max_cycle;Signal;HPM_P1;HPM_P2
2022/03/10 00:00:26;;;;;;;30.50;21.67;;;;;;;2.92;55.24;100723.09;1085997;39;20433;-77
2022/03/10 00:01:30;;;;;;;37.15;21.77;;;;;;;2.98;54.92;100720.13;1085059;54;20038;-78
2022/03/10 00:02:35;;;;;;;28.98;19.98;;;;;;;3.07;54.47;100717.00;1085252;54;20038;-78
2022/03/10 00:03:36;;;;;;;33.45;22.13;;;;;;;3.07;54.45;100726.75;1085386;54;20060;-78
2022/03/10 00:04:40;;;;;;;31.27;21.27;;;;;;;3.05;54.51;100725.97;1085697;46;20065;-77
2022/03/10 00:05:42;;;;;;;33.97;21.15;;;;;;;3.05;54.37;100725.97;1085492;54;20172;-78
2022/03/10 00:06:46;;;;;;;31.80;20.10;;;;;;;3.03;54.47;100725.19;1085559;54;20043;-78
2022/03/10 00:07:48;;;;;;;34.30;21.10;;;;;;;3.07;54.52;100719.66;1085673;54;20082;-78
2022/03/10 00:08:52;;;;;;;32.70;21.42;;;;;;;3.06;54.44;100730.31;1085794;54;20027;-78
2022/03/10 00:09:54;;;;;;;33.40;21.20;;;;;;;3.11;54.22;100726.50;1085561;54;20039;-80
2022/03/10 00:10:58;;;;;;;30.27;20.83;;;;;;;3.15;54.30;100736.94;1085230;54;20058;-78
2022/03/10 00:12:00;;;;;;;29.15;18.63;;;;;;;3.18;54.26;100724.41;1084832;54;20050;-78
2022/03/10 00:13:05;;;;;;;35.58;20.92;;;;;;;3.24;54.07;100733.81;1084735;54;20138;-77
2022/03/10 00:14:06;;;;;;;28.20;18.33;;;;;;;3.28;53.81;100730.03;1086398;46;20046;-77
2022/03/10 00:15:11;;;;;;;29.13;19.38;;;;;;;3.34;53.82;100731.50;1085461;46;20026;-78
2022/03/10 00:16:13;;;;;;;32.90;19.88;;;;;;;3.34;53.98;100737.66;1085805;39;20499;-78
2022/03/10 00:17:20;;;;;;;34.92;22.67;;;;;;;3.36;54.12;100727.84;1085013;54;20611;-78
2022/03/10 00:18:22;;;;;;;39.45;22.67;;;;;;;3.28;54.45;100738.84;1085548;54;20059;-81
2022/03/10 00:19:26;;;;;;;36.40;21.88;;;;;;;3.31;54.38;100735.19;1085543;54;20049;-79
2022/03/10 00:20:30;;;;;;;36.55;22.73;;;;;;;3.26;54.70;100742.47;1085272;54;20034;-79
2022/03/10 00:21:32;;;;;;;33.08;22.08;;;;;;;3.21;54.86;100737.44;1084957;54;20042;-78
2022/03/10 00:22:45;;;;;;;29.42;19.83;;;;;;;3.26;54.88;100738.06;1084892;54;20035;-78
2022/03/10 00:23:47;;;;;;;29.67;19.67;;;;;;;3.25;54.55;100740.81;1086236;54;20038;-80
2022/03/10 00:24:51;;;;;;;30.10;19.05;;;;;;;3.24;54.74;100744.38;1086433;54;20023;-79
2022/03/10 00:25:54;;;;;;;30.20;19.38;;;;;;;3.22;54.79;100741.78;1086635;46;20034;-79
2022/03/10 00:26:58;;;;;;;28.98;19.25;;;;;;;3.19;55.17;100741.97;1086522;54;20034;-79
2022/03/10 00:28:00;;;;;;;32.75;19.98;;;;;;;3.20;54.96;100743.69;1087937;46;20038;-77
2022/03/10 00:29:05;;;;;;;28.00;18.10;;;;;;;3.20;54.92;100743.69;1086796;46;20034;-79
2022/03/10 00:30:07;;;;;;;27.70;17.52;;;;;;;3.20;54.95;100742.81;1086564;46;20026;-79
2022/03/10 00:31:12;;;;;;;23.92;16.20;;;;;;;3.21;54.67;100744.53;1086363;54;20046;-79
2022/03/10 00:32:13;;;;;;;23.92;16.40;;;;;;;3.22;54.87;100751.53;1086424;54;20057;-79
2022/03/10 00:33:23;;;;;;;23.08;16.65;;;;;;;3.25;54.68;100751.38;1085801;54;20373;-78
2022/03/10 00:34:25;;;;;;;28.80;16.58;;;;;;;3.28;54.56;100751.19;1085016;46;20026;-79
2022/03/10 00:35:31;;;;;;;23.95;15.55;;;;;;;3.31;54.68;100755.47;1084803;54;20030;-78
2022/03/10 00:36:33;;;;;;;22.17;15.50;;;;;;;3.33;54.45;100754.47;1085057;54;20138;-78
2022/03/10 00:37:37;;;;;;;23.13;16.17;;;;;;;3.34;54.63;100750.88;1084997;54;20872;-79
2022/03/10 00:38:41;;;;;;;21.95;15.40;;;;;;;3.34;54.55;100750.00;1086376;46;20578;-78
2022/03/10 00:39:43;;;;;;;24.00;16.13;;;;;;;3.35;54.49;100754.38;1086486;54;20030;-79
2022/03/10 00:40:47;;;;;;;25.25;16.85;;;;;;;3.27;54.85;100749.47;1086446;54;20041;-79
2022/03/10 00:41:49;;;;;;;26.98;17.65;;;;;;;3.18;55.09;100748.19;1085727;54;20178;-80
2022/03/10 00:42:53;;;;;;;26.30;17.63;;;;;;;3.22;54.91;100756.81;1085950;54;20061;-79
2022/03/10 00:43:55;;;;;;;25.98;15.85;;;;;;;3.23;54.99;100754.06;1085434;54;20042;-79
2022/03/10 00:44:59;;;;;;;23.15;15.55;;;;;;;3.22;54.96;100756.81;1086059;54;20038;-79
2022/03/10 00:46:01;;;;;;;25.42;17.17;;;;;;;3.18;55.10;100749.94;1085901;54;20034;-79
2022/03/10 00:47:05;;;;;;;24.38;16.55;;;;;;;3.16;55.15;100750.03;1085799;47;20058;-80
2022/03/10 00:48:09;;;;;;;23.50;16.63;;;;;;;3.13;55.16;100752.84;1085562;54;20034;-81
2022/03/10 00:49:16;;;;;;;22.58;15.48;;;;;;;3.12;55.34;100751.13;1087036;46;20042;-79
2022/03/10 00:50:20;;;;;;;24.27;16.40;;;;;;;3.08;55.08;100750.44;1086983;54;20066;-78
2022/03/10 00:51:24;;;;;;;23.70;15.73;;;;;;;3.06;54.97;100741.75;1086611;54;20042;-78
2022/03/10 00:52:27;;;;;;;23.55;16.52;;;;;;;3.01;55.42;100742.94;1087302;39;20671;-78
2022/03/10 00:53:31;;;;;;;27.50;18.48;;;;;;;3.00;55.32;100751.78;1085875;46;20181;-79
2022/03/10 00:54:33;;;;;;;25.30;17.50;;;;;;;2.93;55.53;100751.22;1085788;46;20042;-78
2022/03/10 00:55:37;;;;;;;25.85;16.48;;;;;;;2.94;55.37;100745.88;1084564;54;20061;-78
2022/03/10 00:56:39;;;;;;;24.58;16.25;;;;;;;2.93;55.54;100746.78;1084592;54;20137;-78
2022/03/10 00:57:43;;;;;;;23.90;16.73;;;;;;;2.91;55.69;100743.41;1085415;54;20046;-79
2022/03/10 00:58:47;;;;;;;24.95;16.95;;;;;;;2.86;55.98;100749.84;1084588;54;20072;-77
2022/03/10 00:59:49;;;;;;;26.90;17.67;;;;;;;2.80;56.07;100745.72;1084694;54;20046;-79
2022/03/10 01:00:56;;;;;;;27.60;16.92;;;;;;;2.84;56.01;100752.53;1087543;54;20027;-80
2022/03/10 01:01:58;;;;;;;24.88;16.95;;;;;;;2.78;56.36;100742.31;1088264;54;20022;-78
2022/03/10 01:03:02;;;;;;;25.90;18.02;;;;;;;2.79;56.20;100738.72;1088163;54;20086;-79
2022/03/10 01:04:13;;;;;;;27.63;17.30;;;;;;;2.79;56.53;100744.00;1088453;54;20071;-80
2022/03/10 01:05:17;;;;;;;31.88;18.95;;;;;;;2.74;56.23;100746.88;1094011;46;20031;-79
2022/03/10 01:06:19;;;;;;;27.77;18.85;;;;;;;2.64;56.29;100735.94;1088258;54;20037;-79
2022/03/10 01:07:23;;;;;;;26.73;19.38;;;;;;;2.59;56.66;100743.22;1088242;54;20027;-80
2022/03/10 01:08:24;;;;;;;29.00;19.27;;;;;;;2.58;56.85;100738.03;1088335;54;20019;-79
2022/03/10 01:09:29;;;;;;;30.42;19.05;;;;;;;2.56;56.88;100737.25;1087996;54;20018;-79
2022/03/10 01:10:30;;;;;;;29.67;19.77;;;;;;;2.49;56.94;100742.84;1087918;47;20957;-79
2022/03/10 01:11:36;;;;;;;29.20;20.70;;;;;;;2.40;57.08;100737.16;1087868;54;20034;-80
2022/03/10 01:12:41;;;;;;;28.02;19.38;;;;;;;2.31;57.53;100739.31;1088515;46;20050;-79
2022/03/10 01:13:45;;;;;;;30.42;21.33;;;;;;;2.21;58.01;100743.31;1087323;54;20038;-79
2022/03/10 01:14:47;;;;;;;31.33;20.30;;;;;;;2.12;58.69;100743.75;1085654;54;20066;-78
2022/03/10 01:15:52;;;;;;;34.30;22.40;;;;;;;2.07;59.10;100735.22;1084817;54;20046;-79
2022/03/10 01:16:58;;;;;;;33.20;20.77;;;;;;;2.11;59.15;100736.78;1084259;54;20049;-80
2022/03/10 01:18:04;;;;;;;32.05;20.02;;;;;;;2.10;58.77;100745.59;1084462;54;20063;-79
2022/03/10 01:19:11;;;;;;;30.95;20.45;;;;;;;2.10;58.69;100746.47;1084162;54;20671;-77
2022/03/10 01:20:16;;;;;;;31.13;19.25;;;;;;;2.04;59.13;100738.84;1084077;54;20046;-78
2022/03/10 01:21:20;;;;;;;32.78;21.50;;;;;;;2.02;58.86;100736.28;1083843;54;20050;-78
2022/03/10 01:22:21;;;;;;;32.90;20.42;;;;;;;2.00;58.91;100743.41;1083936;54;20057;-79
2022/03/10 01:23:25;;;;;;;35.72;20.90;;;;;;;2.02;58.96;100744.19;1084573;54;20034;-80
2022/03/10 01:24:27;;;;;;;28.35;18.25;;;;;;;2.13;58.49;100740.19;1084651;54;20058;-79
2022/03/10 01:25:32;;;;;;;26.17;17.92;;;;;;;2.28;58.11;100735.97;1084674;54;20102;-78
2022/03/10 01:26:33;;;;;;;27.70;18.20;;;;;;;2.36;57.70;100738.25;1084396;54;20050;-78
2022/03/10 01:27:38;;;;;;;25.67;16.80;;;;;;;2.41;57.38;100741.50;1084756;54;20042;-78
2022/03/10 01:28:42;;;;;;;26.70;16.55;;;;;;;2.47;57.16;100743.81;1086165;54;20050;-80
2022/03/10 01:29:44;;;;;;;23.58;16.15;;;;;;;2.52;56.74;100741.81;1085570;54;20041;-78
2022/03/10 01:30:48;;;;;;;24.10;16.33;;;;;;;2.59;56.46;100742.38;1085552;54;20035;-79
2022/03/10 01:31:50;;;;;;;26.83;16.75;;;;;;;2.60;56.38;100739.66;1085824;54;20045;-79
2022/03/10 01:32:54;;;;;;;23.08;15.88;;;;;;;2.63;56.27;100730.72;1086816;54;20066;-79
2022/03/10 01:33:55;;;;;;;26.70;17.75;;;;;;;2.48;56.39;100733.22;1087470;39;20502;-78
2022/03/10 01:34:59;;;;;;;29.67;18.63;;;;;;;2.28;57.00;100733.31;1086554;54;20059;-78
2022/03/10 01:36:06;;;;;;;30.08;18.88;;;;;;;2.23;57.24;100736.19;1086746;54;20037;-79
2022/03/10 01:37:08;;;;;;;35.33;19.58;;;;;;;2.16;57.58;100729.50;1086010;54;20042;-78
2022/03/10 01:38:12;;;;;;;31.55;19.90;;;;;;;2.08;57.74;100731.66;1084184;54;20118;-79
2022/03/10 01:39:14;;;;;;;32.15;20.38;;;;;;;2.06;57.76;100733.50;1085582;54;20034;-80
2022/03/10 01:40:20;;;;;;;33.13;21.23;;;;;;;2.05;57.83;100734.44;1086801;46;20049;-79
2022/03/10 01:41:21;;;;;;;33.17;20.85;;;;;;;1.95;57.91;100737.50;1085690;54;20046;-80
2022/03/10 01:42:26;;;;;;;32.25;21.63;;;;;;;1.89;58.20;100740.41;1084980;54;20034;-78
2022/03/10 01:43:27;;;;;;;34.38;22.80;;;;;;;1.75;58.44;100741.06;1085028;54;20593;-78
2022/03/10 01:44:31;;;;;;;31.58;21.98;;;;;;;1.69;58.64;100746.63;1084930;54;20034;-77
2022/03/10 01:45:33;;;;;;;37.83;23.48;;;;;;;1.68;58.76;100745.78;1084952;46;20038;-78
2022/03/10 01:46:38;;;;;;;35.03;22.33;;;;;;;1.58;59.05;100748.91;1084920;54;20035;-78
2022/03/10 01:47:41;;;;;;;32.83;21.50;;;;;;;1.60;59.20;100742.66;1085302;54;20102;-79
2022/03/10 01:48:45;;;;;;;35.97;22.52;;;;;;;1.55;59.32;100749.91;1086013;54;20043;-78
2022/03/10 01:49:47;;;;;;;34.70;22.02;;;;;;;1.42;59.95;100748.75;1086131;46;20046;-78
2022/03/10 01:50:51;;;;;;;31.27;21.55;;;;;;;1.36;60.24;100752.50;1085611;54;20150;-79
2022/03/10 01:51:55;;;;;;;32.85;21.90;;;;;;;1.24;60.79;100756.53;1084888;54;20030;-78
2022/03/10 01:53:00;;;;;;;32.83;21.25;;;;;;;1.23;60.83;100757.44;1084693;54;20049;-79
2022/03/10 01:54:03;;;;;;;34.20;22.02;;;;;;;1.16;61.41;100751.63;1084971;54;20038;-77
2022/03/10 01:55:08;;;;;;;32.17;21.10;;;;;;;1.11;61.50;100755.38;1084291;54;20034;-77
2022/03/10 01:56:11;;;;;;;36.75;22.80;;;;;;;1.13;61.63;100753.53;1084104;54;20065;-79
2022/03/10 01:57:15;;;;;;;33.22;21.10;;;;;;;1.19;61.22;100756.72;1084607;54;20153;-78
2022/03/10 01:58:17;;;;;;;31.58;21.00;;;;;;;1.28;60.82;100755.47;1084423;54;20038;-78
2022/03/10 01:59:22;;;;;;;32.08;20.75;;;;;;;1.29;60.83;100751.06;1084289;54;20039;-78
2022/03/10 02:00:24;;;;;;;33.22;20.50;;;;;;;1.27;60.70;100759.03;1084516;54;20042;-80
2022/03/10 02:01:28;;;;;;;30.48;20.15;;;;;;;1.27;60.86;100753.75;1084514;54;20053;-80
2022/03/10 02:02:29;;;;;;;33.30;20.50;;;;;;;1.33;60.54;100748.22;1085588;54;20165;-79
2022/03/10 02:03:34;;;;;;;36.70;22.10;;;;;;;1.29;60.69;100751.06;1085976;54;20026;-78
2022/03/10 02:04:35;;;;;;;31.27;20.65;;;;;;;1.28;60.50;100755.47;1086319;54;20046;-78
2022/03/10 02:05:39;;;;;;;33.30;20.70;;;;;;;1.28;60.66;100758.13;1086070;54;20054;-79
2022/03/10 02:06:41;;;;;;;31.65;20.50;;;;;;;1.38;60.30;100751.53;1084635;54;20034;-79
2022/03/10 02:10:22;;;;;;;29.63;19.60;;;;;;;1.43;60.19;100758.34;1084601;54;20524;-76
2022/03/10 02:11:24;;;;;;;32.50;19.85;;;;;;;1.36;59.98;100756.00;1084051;54;20054;-78
2022/03/10 02:12:28;;;;;;;27.55;19.08;;;;;;;1.40;59.88;100754.94;1084192;39;20543;-77
2022/03/10 02:13:30;;;;;;;36.63;22.85;;;;;;;1.31;60.08;100759.75;1083574;54;20061;-76
2022/03/10 02:17:22;;;;;;;31.45;20.60;;;;;;;1.44;59.60;100757.41;1084569;54;20066;-77
2022/03/10 02:18:24;;;;;;;31.83;21.15;;;;;;;1.43;59.66;100761.84;1085364;39;20433;-78
2022/03/10 02:19:28;;;;;;;31.55;20.33;;;;;;;1.48;59.50;100754.56;1084830;46;20030;-78
2022/03/10 02:20:30;;;;;;;30.42;20.77;;;;;;;1.61;58.94;100749.59;1084651;46;20058;-79
2022/03/10 02:21:38;;;;;;;30.00;19.08;;;;;;;1.68;59.10;100766.88;1084254;54;20049;-79
2022/03/10 02:22:42;;;;;;;28.00;18.38;;;;;;;1.80;58.67;100754.03;1084791;54;20030;-78
2022/03/10 02:23:46;;;;;;;28.17;19.58;;;;;;;1.74;58.69;100755.19;1084994;46;20051;-78
2022/03/10 02:24:50;;;;;;;29.00;19.73;;;;;;;1.78;58.52;100756.75;1084809;54;20037;-79
2022/03/10 02:25:54;;;;;;;30.77;20.33;;;;;;;1.80;58.39;100761.94;1085040;54;20046;-78
2022/03/10 02:26:56;;;;;;;29.10;19.15;;;;;;;1.78;58.38;100761.19;1085016;54;20579;-79
2022/03/10 02:28:00;;;;;;;25.98;18.08;;;;;;;1.81;58.36;100761.00;1084902;54;20031;-78
2022/03/10 02:29:06;;;;;;;29.45;19.35;;;;;;;1.74;58.55;100759.59;1084217;54;20038;-78
2022/03/10 02:30:08;;;;;;;25.45;17.70;;;;;;;1.77;58.61;100756.81;1084842;54;20102;-77
2022/03/10 02:31:13;;;;;;;25.85;17.30;;;;;;;1.82;58.46;100757.47;1084340;54;20129;-79
2022/03/10 02:32:16;;;;;;;30.73;18.40;;;;;;;1.81;58.25;100761.00;1084759;39;20410;-79
2022/03/10 02:33:20;;;;;;;25.67;17.58;;;;;;;1.84;58.31;100760.88;1084581;54;20540;-79
2022/03/10 02:34:22;;;;;;;27.52;18.75;;;;;;;1.82;58.26;100754.81;1084389;54;20593;-78
2022/03/10 02:35:28;;;;;;;27.20;18.27;;;;;;;1.79;58.39;100762.91;1084562;46;20117;-79
2022/03/10 02:36:33;;;;;;;27.25;17.33;;;;;;;1.81;58.24;100766.28;1084443;46;20054;-79
2022/03/10 02:37:37;;;;;;;26.42;16.75;;;;;;;1.79;58.40;100754.97;1084451;54;20045;-79
2022/03/10 02:38:44;;;;;;;31.00;18.42;;;;;;;1.77;58.42;100754.19;1084480;54;20050;-79
2022/03/10 02:39:47;;;;;;;28.23;17.73;;;;;;;1.74;58.64;100762.22;1084380;54;20064;-78
2022/03/10 02:40:51;;;;;;;23.02;16.55;;;;;;;1.75;58.66;100758.69;1084997;54;20027;-78
2022/03/10 02:41:53;;;;;;;25.58;17.05;;;;;;;1.75;58.50;100761.31;1085060;54;20065;-78
2022/03/10 02:42:58;;;;;;;28.27;18.23;;;;;;;1.70;58.63;100764.16;1084886;54;20057;-78
2022/03/10 02:44:00;;;;;;;26.67;16.90;;;;;;;1.64;58.95;100765.28;1084933;54;20049;-77
2022/03/10 02:45:06;;;;;;;27.95;18.17;;;;;;;1.65;59.30;100761.72;1085810;39;20508;-79
2022/03/10 02:46:07;;;;;;;27.88;16.25;;;;;;;1.65;59.10;100761.72;1084548;54;20065;-78
2022/03/10 02:47:12;;;;;;;23.88;16.65;;;;;;;1.62;59.63;100764.50;1084890;54;20026;-77
2022/03/10 02:48:16;;;;;;;27.90;18.15;;;;;;;1.61;59.57;100770.69;1084844;54;20050;-78
2022/03/10 02:49:18;;;;;;;28.10;17.25;;;;;;;1.58;59.87;100765.59;1084883;54;20065;-78
2022/03/10 02:50:22;;;;;;;27.13;17.13;;;;;;;1.58;59.94;100760.31;1085196;54;20075;-79
2022/03/10 02:51:24;;;;;;;26.60;17.45;;;;;;;1.54;60.25;100766.63;1085279;54;20038;-78
2022/03/10 02:52:28;;;;;;;28.08;17.70;;;;;;;1.55;60.09;100761.31;1084733;54;20563;-78
2022/03/10 02:53:30;;;;;;;26.55;17.85;;;;;;;1.50;60.28;100768.56;1084938;54;20066;-80
2022/03/10 02:54:37;;;;;;;28.00;18.17;;;;;;;1.49;60.57;100760.72;1084617;54;20039;-79
2022/03/10 02:55:39;;;;;;;31.17;17.15;;;;;;;1.49;60.34;100758.94;1084799;54;20069;-78
2022/03/10 02:56:43;;;;;;;23.83;16.33;;;;;;;1.54;60.13;100764.00;1084597;54;20038;-80
2022/03/10 02:57:45;;;;;;;23.58;16.48;;;;;;;1.56;60.11;100764.78;1084874;54;20061;-79
2022/03/10 02:58:49;;;;;;;24.90;15.48;;;;;;;1.59;59.99;100759.38;1085572;39;20448;-79
2022/03/10 02:59:51;;;;;;;23.17;14.65;;;;;;;1.64;59.75;100759.19;1085551;54;20026;-79
2022/03/10 03:00:55;;;;;;;21.55;14.50;;;;;;;1.69;59.75;100767.72;1085850;54;20042;-79
2022/03/10 03:01:58;;;;;;;21.73;14.60;;;;;;;1.71;59.62;100769.34;1085204;54;20044;-79
2022/03/10 03:03:02;;;;;;;32.00;15.70;;;;;;;1.70;59.49;100765.00;1085421;54;20042;-80
2022/03/10 03:04:04;;;;;;;28.00;16.67;;;;;;;1.64;59.83;100762.66;1085183;54;20042;-78
2022/03/10 03:05:09;;;;;;;23.95;15.73;;;;;;;1.70;59.67;100769.44;1084857;54;20054;-80
2022/03/10 03:06:11;;;;;;;23.67;15.23;;;;;;;1.70;59.62;100759.72;1084750;54;20042;-79
2022/03/10 03:07:15;;;;;;;20.73;13.82;;;;;;;1.71;59.68;100766.72;1085200;54;20069;-78
2022/03/10 03:08:16;;;;;;;21.77;14.32;;;;;;;1.70;59.88;100766.78;1084963;54;20112;-77
2022/03/10 03:09:20;;;;;;;25.55;16.05;;;;;;;1.68;59.85;100769.50;1085193;54;20031;-78
2022/03/10 03:10:25;;;;;;;24.08;15.77;;;;;;;1.61;60.14;100765.41;1084517;54;20043;-79
2022/03/10 03:11:29;;;;;;;24.85;15.43;;;;;;;1.64;59.99;100770.56;1084482;54;20038;-79
2022/03/10 03:12:31;;;;;;;24.20;15.40;;;;;;;1.68;59.58;100771.28;1084853;46;20038;-78
2022/03/10 03:13:35;;;;;;;22.23;14.10;;;;;;;1.70;59.71;100775.53;1085567;39;20456;-79
2022/03/10 03:14:37;;;;;;;21.48;14.35;;;;;;;1.75;59.57;100771.84;1084207;54;20049;-78
2022/03/10 03:15:41;;;;;;;20.08;13.65;;;;;;;1.78;59.25;100782.28;1084486;54;20102;-79
2022/03/10 03:16:43;;;;;;;23.17;14.63;;;;;;;1.79;59.29;100782.19;1084437;54;20046;-79
2022/03/10 03:17:47;;;;;;;18.92;13.25;;;;;;;1.78;59.28;100780.47;1084421;54;20572;-78
2022/03/10 03:18:49;;;;;;;20.85;14.50;;;;;;;1.78;59.44;100782.28;1084552;47;20063;-78
2022/03/10 03:19:53;;;;;;;21.38;14.32;;;;;;;1.76;59.57;100781.47;1084424;54;20038;-79
2022/03/10 03:20:55;;;;;;;19.40;12.85;;;;;;;1.79;59.40;100786.63;1084509;54;20063;-77
2022/03/10 03:21:59;;;;;;;21.77;14.18;;;;;;;1.77;59.66;100781.41;1085467;39;20449;-78
2022/03/10 03:23:03;;;;;;;22.30;14.88;;;;;;;1.66;59.70;100783.66;1084817;54;20086;-78
2022/03/10 03:24:05;;;;;;;19.70;13.00;;;;;;;1.66;59.60;100784.53;1085075;54;20038;-79
2022/03/10 03:25:10;;;;;;;27.17;15.43;;;;;;;1.54;59.82;100783.31;1084875;54;20050;-79
2022/03/10 03:26:14;;;;;;;20.67;13.18;;;;;;;1.58;59.82;100786.66;1085264;54;20064;-77
2022/03/10 03:27:18;;;;;;;21.25;13.98;;;;;;;1.60;59.71;100789.22;1084928;54;20063;-78
2022/03/10 03:28:21;;;;;;;19.92;13.98;;;;;;;1.60;59.68;100787.47;1085085;54;20065;-78
2022/03/10 03:29:25;;;;;;;21.13;13.32;;;;;;;1.58;59.46;100791.06;1084997;54;20038;-79
2022/03/10 03:30:27;;;;;;;20.60;13.35;;;;;;;1.55;59.67;100784.16;1085017;54;20049;-79
2022/03/10 03:31:31;;;;;;;21.08;14.00;;;;;;;1.61;59.34;100789.13;1085100;54;20035;-78
2022/03/10 03:32:32;;;;;;;23.08;14.82;;;;;;;1.53;59.96;100788.63;1085084;54;20039;-78
2022/03/10 03:33:37;;;;;;;22.10;14.82;;;;;;;1.50;59.97;100788.78;1085272;54;20069;-78
2022/03/10 03:34:38;;;;;;;20.70;13.55;;;;;;;1.54;59.88;100785.06;1085004;54;20042;-78
2022/03/10 03:35:42;;;;;;;20.48;13.32;;;;;;;1.53;59.99;100784.22;1084957;54;20061;-79
2022/03/10 03:36:45;;;;;;;23.52;13.15;;;;;;;1.54;59.88;100785.06;1084688;54;20042;-78
2022/03/10 03:37:49;;;;;;;20.17;13.68;;;;;;;1.54;59.76;100790.34;1084691;54;20046;-79
2022/03/10 03:38:51;;;;;;;19.52;13.57;;;;;;;1.58;59.63;100786.66;1085085;54;20039;-78
2022/03/10 03:39:55;;;;;;;21.05;13.05;;;;;;;1.55;59.66;100785.03;1085153;54;20133;-79
2022/03/10 03:40:57;;;;;;;20.88;12.93;;;;;;;1.55;59.76;100786.78;1085207;54;20051;-79
2022/03/10 03:42:04;;;;;;;19.13;11.95;;;;;;;1.58;59.79;100789.31;1085208;54;20045;-78
2022/03/10 03:43:05;;;;;;;18.05;11.77;;;;;;;1.58;59.63;100791.94;1085087;54;20134;-78
2022/03/10 03:44:11;;;;;;;20.05;13.50;;;;;;;1.55;59.81;100787.66;1085409;54;20038;-78
2022/03/10 03:45:12;;;;;;;23.65;13.52;;;;;;;1.53;59.81;100793.91;1085628;54;20038;-78
2022/03/10 03:46:16;;;;;;;22.02;14.00;;;;;;;1.55;59.71;100792.06;1085475;54;20026;-78
2022/03/10 03:47:18;;;;;;;17.92;12.30;;;;;;;1.56;59.69;100793.78;1085134;54;20034;-78
2022/03/10 03:48:22;;;;;;;21.58;13.93;;;;;;;1.50;60.00;100802.81;1087554;47;20069;-78
2022/03/10 03:49:23;;;;;;;21.63;13.52;;;;;;;1.50;59.98;100794.06;1085833;47;20034;-77
2022/03/10 03:50:27;;;;;;;25.55;16.13;;;;;;;1.48;60.05;100801.19;1085314;54;20034;-79
2022/03/10 03:51:31;;;;;;;22.17;14.75;;;;;;;1.44;60.14;100794.31;1085707;54;20065;-79
2022/03/10 03:52:35;;;;;;;23.65;14.70;;;;;;;1.46;60.18;100792.47;1085239;54;20031;-79
2022/03/10 03:53:36;;;;;;;21.83;14.13;;;;;;;1.47;60.07;100795.03;1084806;54;20034;-79
2022/03/10 03:54:41;;;;;;;22.52;13.90;;;;;;;1.53;60.04;100792.16;1085262;54;20233;-78
2022/03/10 03:55:42;;;;;;;21.15;13.45;;;;;;;1.55;59.86;100794.69;1086185;47;20042;-80
2022/03/10 03:56:46;;;;;;;21.75;13.43;;;;;;;1.55;59.88;100800.84;1085079;47;20050;-77
2022/03/10 03:57:53;;;;;;;24.17;13.55;;;;;;;1.52;59.99;100802.72;1084907;47;20029;-80
2022/03/10 03:58:55;;;;;;;25.38;13.35;;;;;;;1.51;59.80;100795.78;1084645;54;20038;-78
2022/03/10 03:59:59;;;;;;;21.55;14.48;;;;;;;1.48;59.82;100803.81;1086344;54;20031;-79
2022/03/10 04:01:00;;;;;;;20.02;12.90;;;;;;;1.45;60.03;100796.03;1086934;54;20041;-77
2022/03/10 04:02:05;;;;;;;25.83;14.90;;;;;;;1.40;60.02;100798.88;1086280;54;20034;-78
2022/03/10 04:03:08;;;;;;;23.45;14.98;;;;;;;1.35;60.36;100800.84;1084981;54;20067;-77
2022/03/10 04:04:13;;;;;;;20.33;14.35;;;;;;;1.33;60.14;100800.91;1084790;47;20038;-77
2022/03/10 04:05:15;;;;;;;23.55;15.38;;;;;;;1.33;60.39;100803.53;1084447;54;20027;-77
2022/03/10 04:06:19;;;;;;;21.70;14.32;;;;;;;1.33;60.47;100797.44;1083923;47;20061;-80
2022/03/10 04:07:20;;;;;;;20.52;14.30;;;;;;;1.35;60.34;100801.69;1084769;54;20026;-77
2022/03/10 04:08:25;;;;;;;22.10;13.98;;;;;;;1.36;60.04;100810.47;1084775;47;20034;-78
2022/03/10 04:09:26;;;;;;;30.55;13.68;;;;;;;1.33;60.15;100806.19;1084913;54;20102;-76
2022/03/10 04:10:31;;;;;;;20.52;13.20;;;;;;;1.36;60.25;100811.31;1084398;54;20034;-78
2022/03/10 04:11:33;;;;;;;25.52;13.85;;;;;;;1.32;60.36;100812.41;1084404;54;20062;-79
2022/03/10 04:12:37;;;;;;;23.02;14.63;;;;;;;1.29;60.39;100809.88;1085840;54;20035;-79
2022/03/10 04:13:41;;;;;;;25.33;15.07;;;;;;;1.24;61.00;100812.72;1085885;54;20046;-78
2022/03/10 04:14:46;;;;;;;22.55;14.50;;;;;;;1.23;60.48;100810.13;1087839;39;20785;-79
2022/03/10 04:15:49;;;;;;;23.52;15.75;;;;;;;1.20;60.69;100812.91;1085399;54;20065;-79
2022/03/10 04:16:53;;;;;;;21.27;14.52;;;;;;;1.18;60.68;100807.69;1084605;54;20049;-78
2022/03/10 04:17:57;;;;;;;23.23;14.50;;;;;;;1.22;60.80;100816.34;1084560;54;20161;-78
2022/03/10 04:18:58;;;;;;;25.17;16.02;;;;;;;1.19;60.71;100811.19;1085128;54;20047;-79
2022/03/10 04:20:02;;;;;;;24.33;14.75;;;;;;;1.20;60.67;100810.28;1085457;54;20038;-79
2022/03/10 04:21:04;;;;;;;24.25;14.80;;;;;;;1.17;60.76;100810.41;1085956;46;20074;-79
2022/03/10 04:22:08;;;;;;;23.30;15.25;;;;;;;1.20;60.63;100802.38;1086513;39;20787;-79
2022/03/10 04:23:10;;;;;;;22.55;14.55;;;;;;;1.21;60.58;100810.22;1084977;54;20066;-79
2022/03/10 04:24:14;;;;;;;25.17;14.38;;;;;;;1.17;60.58;100808.66;1085687;54;20042;-79
2022/03/10 04:25:16;;;;;;;24.17;14.27;;;;;;;1.23;60.65;100815.41;1085641;54;20035;-79
2022/03/10 04:26:21;;;;;;;21.80;14.82;;;;;;;1.14;60.73;100810.53;1086435;39;20444;-80
2022/03/10 04:27:22;;;;;;;23.48;14.98;;;;;;;1.05;61.06;100815.25;1085515;54;20046;-79
2022/03/10 04:28:27;;;;;;;23.88;15.73;;;;;;;0.94;61.58;100809.63;1085630;54;20042;-80
2022/03/10 04:29:31;;;;;;;22.98;15.40;;;;;;;0.85;62.02;100816.13;1085645;54;20053;-79
2022/03/10 04:30:38;;;;;;;30.40;18.00;;;;;;;0.62;62.80;100817.06;1085775;54;20041;-79
2022/03/10 04:31:40;;;;;;;24.50;17.65;;;;;;;0.60;62.77;100813.63;1085732;47;20046;-79
2022/03/10 04:32:45;;;;;;;30.58;17.83;;;;;;;0.46;63.23;100820.31;1090740;31;20517;-78
2022/03/10 04:33:47;;;;;;;27.50;18.70;;;;;;;0.41;63.20;100819.63;1086730;54;20035;-79
2022/03/10 04:34:52;;;;;;;30.30;19.10;;;;;;;0.37;63.50;100825.06;1085824;54;20315;-79
2022/03/10 04:35:55;;;;;;;28.02;18.20;;;;;;;0.35;63.58;100819.88;1085427;54;20038;-80
2022/03/10 04:36:59;;;;;;;29.88;18.88;;;;;;;0.39;63.64;100816.19;1085858;47;20046;-79
2022/03/10 04:38:01;;;;;;;30.13;18.42;;;;;;;0.31;63.51;100818.25;1086671;54;20603;-79
2022/03/10 04:39:06;;;;;;;26.90;18.38;;;;;;;0.41;63.51;100818.78;1086512;54;20042;-79
2022/03/10 04:40:11;;;;;;;28.23;17.02;;;;;;;0.47;63.03;100814.09;1086006;54;20058;-79
2022/03/10 04:41:13;;;;;;;27.48;18.08;;;;;;;0.45;63.07;100818.59;1086506;54;20104;-78
2022/03/10 04:42:17;;;;;;;29.13;18.95;;;;;;;0.44;63.06;100814.25;1086476;54;20041;-80
2022/03/10 04:43:19;;;;;;;27.60;18.38;;;;;;;0.43;63.08;100807.28;1086334;54;20038;-79
2022/03/10 04:44:29;;;;;;;28.30;17.63;;;;;;;0.54;62.91;100816.50;1089421;39;20762;-81
2022/03/10 04:47:55;;;;;;;23.10;15.15;;;;;;;0.74;61.87;100808.66;1088273;54;20030;-75
2022/03/10 04:48:57;;;;;;;23.95;15.45;;;;;;;0.84;61.50;100808.28;1088552;46;20022;-75
2022/03/10 04:50:02;;;;;;;20.35;13.40;;;;;;;0.89;61.25;100808.94;1089171;46;20027;-75
2022/03/10 04:51:06;;;;;;;22.73;14.65;;;;;;;0.90;61.03;100805.38;1088285;54;20034;-75
2022/03/10 04:52:07;;;;;;;21.27;14.07;;;;;;;0.90;61.21;100810.66;1090318;46;20031;-77
2022/03/10 04:53:12;;;;;;;18.55;12.88;;;;;;;0.92;61.27;100814.94;1095257;39;20664;-78
2022/03/10 04:54:13;;;;;;;20.00;13.20;;;;;;;0.94;61.21;100791.19;1087919;54;20030;-78
2022/03/10 04:55:17;;;;;;;19.20;12.18;;;;;;;1.00;60.91;100795.31;1087917;54;20070;-78
2022/03/10 04:56:19;;;;;;;20.30;13.02;;;;;;;1.01;60.86;100805.81;1087872;54;20046;-76
2022/03/10 04:57:23;;;;;;;18.80;13.15;;;;;;;1.01;60.98;100800.53;1087962;54;20038;-77
2022/03/10 04:58:28;;;;;;;18.88;13.10;;;;;;;1.01;61.00;100800.53;1087860;54;20038;-77
2022/03/10 04:59:31;;;;;;;19.85;13.27;;;;;;;1.04;60.67;100803.00;1087879;54;20808;-78